Time;durP1;ratioP1;P1;durP2;ratioP2;P2;SDS_P1;SDS_P2;PMS_P1;PMS_P2;Temp;Humidity;BMP_temperature;BMP_pressure;BME280_temperature;BME280_humidity;BME280_pressure;Samples;Min_cycle;Max_cycle;Signal;HPM_P1;HPM_P2
2023/08/05 00:01:40;;;;;;;2.97;2.60;;;15.50;99.90;;;;;;5066961;28;20462;-68
2023/08/05 00:04:07;;;;;;;4.30;3.83;;;15.50;99.90;;;;;;5068053;28;20458;-68
2023/08/05 00:06:35;;;;;;;5.50;3.40;;;15.50;99.90;;;;;;5067382;28;20457;-68
2023/08/05 00:09:03;;;;;;;4.30;3.90;;;15.50;99.90;;;;;;5068966;28;20484;-68
2023/08/05 00:11:30;;;;;;;4.13;3.50;;;15.50;99.90;;;;;;5128939;22;20899;-72
2023/08/05 00:13:57;;;;;;;4.30;3.70;;;15.50;99.90;;;;;;5051813;28;21039;-70
2023/08/05 00:16:23;;;;;;;3.33;3.03;;;15.50;99.90;;;;;;5060374;28;20586;-70
2023/08/05 00:18:50;;;;;;;4.00;3.70;;;15.50;99.90;;;;;;5063257;28;20477;-70
2023/08/05 00:21:18;;;;;;;4.63;3.70;;;15.50;99.90;;;;;;5072347;28;20481;-70
2023/08/05 00:23:46;;;;;;;3.70;3.40;;;15.50;99.90;;;;;;5072099;28;20462;-70
2023/08/05 00:26:13;;;;;;;4.10;3.40;;;15.50;99.90;;;;;;5071855;28;20463;-70
2023/08/05 00:28:39;;;;;;;5.50;3.40;;;15.50;99.90;;;;;;5071477;28;20564;-70
2023/08/05 00:31:08;;;;;;;3.37;3.00;;;15.50;99.90;;;;;;5071772;28;20450;-70
2023/08/05 00:33:35;;;;;;;3.97;2.80;;;15.50;99.90;;;;;;5071344;28;20456;-72
2023/08/05 00:36:02;;;;;;;4.70;3.57;;;15.50;99.90;;;;;;5071725;28;20457;-72
2023/08/05 00:38:29;;;;;;;3.50;3.20;;;15.50;99.90;;;;;;5069800;28;20483;-71
2023/08/05 00:40:57;;;;;;;2.87;2.67;;;15.50;99.90;;;;;;5046011;28;20464;-71
2023/08/05 00:43:23;;;;;;;4.10;3.70;;;15.40;99.90;;;;;;5071749;28;20809;-72
2023/08/05 00:45:51;;;;;;;2.63;2.43;;;15.40;99.90;;;;;;5071326;28;20464;-72
2023/08/05 00:48:18;;;;;;;4.00;3.30;;;15.40;99.90;;;;;;5070945;28;20566;-72
2023/08/05 00:50:45;;;;;;;5.30;3.27;;;15.40;99.90;;;;;;5071327;28;20462;-72
2023/08/05 00:53:12;;;;;;;3.10;2.77;;;15.40;99.90;;;;;;5071168;28;20940;-72
2023/08/05 00:55:40;;;;;;;4.23;3.10;;;15.30;99.90;;;;;;5070994;28;20515;-71
2023/08/05 00:58:08;;;;;;;4.13;3.53;;;15.30;99.90;;;;;;5070757;28;20477;-72
2023/08/05 01:00:35;;;;;;;6.67;3.30;;;15.30;99.90;;;;;;5071157;28;20463;-72
2023/08/05 01:03:02;;;;;;;4.70;3.43;;;15.30;99.90;;;;;;5070980;28;20947;-71
2023/08/05 01:05:29;;;;;;;3.40;3.10;;;15.30;99.90;;;;;;5070785;28;20450;-71
2023/08/05 01:07:56;;;;;;;4.20;3.70;;;15.30;99.90;;;;;;5070166;28;20466;-72
2023/08/05 01:10:23;;;;;;;3.70;3.40;;;15.30;99.90;;;;;;5070662;28;20459;-70
2023/08/05 01:12:50;;;;;;;4.80;3.37;;;15.30;99.90;;;;;;5070976;28;20810;-69
2023/08/05 01:15:18;;;;;;;4.27;2.97;;;15.20;99.90;;;;;;5070765;28;20461;-69
2023/08/05 01:17:45;;;;;;;5.53;2.87;;;15.20;99.90;;;;;;5070121;28;21071;-70
2023/08/05 01:20:14;;;;;;;3.57;3.27;;;15.20;99.90;;;;;;5070966;28;20466;-69
2023/08/05 01:22:43;;;;;;;3.90;3.20;;;15.20;99.90;;;;;;5070796;28;20460;-70
2023/08/05 01:25:26;;;;;;;3.50;3.20;;;15.20;99.90;;;;;;5070545;28;20832;-70
2023/08/05 01:27:55;;;;;;;3.40;2.87;;;15.10;99.90;;;;;;5070405;28;20557;-70
2023/08/05 01:30:23;;;;;;;3.83;3.20;;;15.10;99.90;;;;;;5070714;28;21173;-70
2023/08/05 01:32:52;;;;;;;2.70;2.50;;;15.10;99.90;;;;;;5070246;28;20484;-69
2023/08/05 01:35:22;;;;;;;7.73;3.40;;;15.20;99.90;;;;;;5070540;28;20460;-70
2023/08/05 01:37:49;;;;;;;3.20;2.90;;;15.20;99.90;;;;;;5069940;28;20485;-70
2023/08/05 01:40:15;;;;;;;3.30;3.00;;;15.20;99.90;;;;;;5070296;28;20456;-70
2023/08/05 01:42:44;;;;;;;3.60;3.30;;;15.10;99.90;;;;;;5070391;28;20492;-69
2023/08/05 01:45:11;;;;;;;3.50;2.90;;;15.20;99.90;;;;;;5070470;28;20475;-70
2023/08/05 01:47:37;;;;;;;3.00;2.50;;;15.20;99.90;;;;;;5070381;28;20816;-70
2023/08/05 01:50:05;;;;;;;5.30;3.37;;;15.20;99.90;;;;;;5070699;28;20452;-70
2023/08/05 01:52:32;;;;;;;3.47;2.53;;;15.20;99.90;;;;;;5070254;28;20457;-69
2023/08/05 01:54:59;;;;;;;5.13;3.30;;;15.20;99.90;;;;;;5070224;28;20467;-70
2023/08/05 01:57:25;;;;;;;3.67;3.37;;;15.20;99.90;;;;;;5069859;28;20494;-69
2023/08/05 01:59:53;;;;;;;4.07;3.27;;;15.20;99.90;;;;;;5070128;28;20454;-69
2023/08/05 02:02:20;;;;;;;4.10;3.37;;;15.20;99.90;;;;;;5070307;28;20459;-70
2023/08/05 02:04:47;;;;;;;5.00;2.97;;;15.20;99.90;;;;;;5070266;28;20536;-70
2023/08/05 02:07:14;;;;;;;6.50;3.17;;;15.20;99.90;;;;;;5069926;28;20450;-69
2023/08/05 02:09:40;;;;;;;3.03;2.80;;;15.20;99.90;;;;;;5069609;28;20484;-69
2023/08/05 02:12:07;;;;;;;4.23;3.00;;;15.10;99.90;;;;;;5070056;28;20463;-69
2023/08/05 02:14:34;;;;;;;5.23;3.03;;;15.10;99.90;;;;;;5070146;28;20456;-69
2023/08/05 02:17:02;;;;;;;3.23;2.93;;;15.10;99.90;;;;;;5069997;28;20501;-69
2023/08/05 02:19:29;;;;;;;4.63;3.33;;;15.10;99.90;;;;;;5076463;28;20473;-69
2023/08/05 02:21:55;;;;;;;3.47;3.17;;;15.10;99.90;;;;;;5076524;28;20452;-69
2023/08/05 02:24:22;;;;;;;4.30;3.10;;;15.10;99.90;;;;;;5076627;28;20451;-69
2023/08/05 02:26:49;;;;;;;3.17;2.87;;;15.10;99.90;;;;;;5076431;28;20461;-70
2023/08/05 02:29:15;;;;;;;4.07;3.20;;;15.00;99.90;;;;;;5076155;28;20476;-70
2023/08/05 02:31:42;;;;;;;7.70;3.57;;;15.10;99.90;;;;;;5076627;28;20453;-70
2023/08/05 02:34:10;;;;;;;5.80;3.50;;;15.00;99.90;;;;;;5076484;28;20955;-70
2023/08/05 02:36:37;;;;;;;3.90;3.60;;;15.00;99.90;;;;;;5076208;28;20455;-70
2023/08/05 02:39:04;;;;;;;3.47;3.10;;;14.90;99.90;;;;;;5075616;28;20473;-70
2023/08/05 02:41:31;;;;;;;3.70;3.13;;;14.90;99.90;;;;;;5076668;28;20455;-70
2023/08/05 02:43:58;;;;;;;5.63;3.50;;;14.90;99.90;;;;;;5076356;28;20568;-70
2023/08/05 02:46:24;;;;;;;3.63;3.23;;;14.80;99.90;;;;;;5076426;28;20458;-70
2023/08/05 02:48:51;;;;;;;3.60;3.13;;;14.80;99.90;;;;;;5075891;28;20494;-70
2023/08/05 02:51:19;;;;;;;4.23;3.40;;;14.70;99.90;;;;;;5076424;28;20452;-70
2023/08/05 02:53:46;;;;;;;4.13;3.73;;;14.70;99.90;;;;;;5076136;28;20658;-70
2023/08/05 02:56:13;;;;;;;4.20;3.57;;;14.70;99.90;;;;;;5076626;28;20460;-70
2023/08/05 02:58:39;;;;;;;3.83;3.50;;;14.70;99.90;;;;;;5075802;28;20840;-70
2023/08/05 03:01:08;;;;;;;4.70;3.20;;;14.70;99.90;;;;;;5076412;28;20465;-70
2023/08/05 03:03:35;;;;;;;4.00;3.60;;;14.70;99.90;;;;;;5076373;28;20934;-70
2023/08/05 03:06:01;;;;;;;4.50;3.70;;;14.70;99.90;;;;;;5076028;28;20455;-70
2023/08/05 03:08:29;;;;;;;4.37;3.17;;;14.70;99.90;;;;;;5076006;28;20863;-70
2023/08/05 03:10:57;;;;;;;5.43;3.23;;;14.70;99.90;;;;;;5076043;28;20468;-70
2023/08/05 03:13:24;;;;;;;3.87;3.40;;;14.70;99.90;;;;;;5076461;28;20516;-70
2023/08/05 03:15:51;;;;;;;3.83;3.17;;;14.70;99.90;;;;;;5075940;28;20476;-70
2023/08/05 03:18:18;;;;;;;5.73;3.50;;;14.70;99.90;;;;;;5075871;28;20970;-70
2023/08/05 03:20:45;;;;;;;3.60;3.30;;;14.70;99.90;;;;;;5076038;28;20459;-70
2023/08/05 03:23:11;;;;;;;3.87;2.87;;;14.70;99.90;;;;;;5076184;28;20470;-70
2023/08/05 03:25:40;;;;;;;3.70;3.27;;;14.60;99.90;;;;;;5076013;28;20867;-70
2023/08/05 03:28:06;;;;;;;3.23;2.90;;;14.60;99.90;;;;;;5075739;28;20992;-70
2023/08/05 03:30:33;;;;;;;3.63;3.30;;;14.60;99.90;;;;;;5072711;28;20461;-70
2023/08/05 03:33:00;;;;;;;4.20;3.20;;;14.60;99.90;;;;;;5072561;28;20467;-70
2023/08/05 03:35:26;;;;;;;4.00;3.60;;;14.60;99.90;;;;;;5072941;28;20815;-70
2023/08/05 03:37:53;;;;;;;4.77;3.43;;;14.70;99.90;;;;;;5071434;28;20491;-70
2023/08/05 03:40:20;;;;;;;6.40;4.00;;;14.70;99.90;;;;;;5072794;28;20457;-70
2023/08/05 03:42:48;;;;;;;5.00;4.03;;;14.70;99.90;;;;;;5072508;28;20482;-69
2023/08/05 03:45:15;;;;;;;3.37;3.03;;;14.70;99.90;;;;;;5072690;28;20521;-69
2023/08/05 03:47:42;;;;;;;7.10;3.60;;;14.70;99.90;;;;;;5071906;28;20973;-70
2023/08/05 03:50:09;;;;;;;3.90;3.30;;;14.70;99.90;;;;;;5072531;28;20557;-69
2023/08/05 03:52:36;;;;;;;4.90;3.20;;;14.70;99.90;;;;;;5072525;28;20842;-69
2023/08/05 03:55:03;;;;;;;3.40;3.13;;;14.70;99.90;;;;;;5072184;28;20464;-69
2023/08/05 03:57:30;;;;;;;3.60;3.00;;;14.70;99.90;;;;;;5071761;28;20489;-69
2023/08/05 03:59:58;;;;;;;4.20;3.10;;;14.70;99.90;;;;;;5072071;28;20448;-69
2023/08/05 04:02:26;;;;;;;4.03;3.40;;;14.70;99.90;;;;;;5072464;28;20461;-70
2023/08/05 04:04:53;;;;;;;3.97;3.40;;;14.70;99.90;;;;;;5072054;28;20466;-69
2023/08/05 04:07:19;;;;;;;5.27;3.37;;;14.70;99.90;;;;;;5071767;28;20962;-69
2023/08/05 04:09:49;;;;;;;5.73;4.33;;;14.70;99.90;;;;;;5071667;28;20477;-69
2023/08/05 04:12:15;;;;;;;4.03;3.37;;;14.70;99.90;;;;;;5072252;28;20460;-69
2023/08/05 04:14:44;;;;;;;5.37;4.07;;;14.70;99.90;;;;;;5072100;28;20464;-70
2023/08/05 04:17:14;;;;;;;3.83;3.43;;;14.70;99.90;;;;;;5072000;28;20482;-69
2023/08/05 04:19:41;;;;;;;3.83;3.53;;;14.60;99.90;;;;;;5071667;28;21046;-69
2023/08/05 04:22:08;;;;;;;3.53;3.23;;;14.60;99.90;;;;;;5071660;28;20477;-69
2023/08/05 04:24:35;;;;;;;4.40;3.80;;;14.70;99.90;;;;;;5072071;28;20456;-69
2023/08/05 04:27:03;;;;;;;5.07;3.53;;;14.70;99.90;;;;;;5071494;28;20871;-69
2023/08/05 04:29:29;;;;;;;3.90;3.37;;;14.70;99.90;;;;;;5071804;28;20475;-70
2023/08/05 04:31:56;;;;;;;6.93;3.70;;;14.70;99.90;;;;;;5071468;28;20455;-70
2023/08/05 04:34:24;;;;;;;4.10;3.60;;;14.70;99.90;;;;;;5071876;28;20451;-70
2023/08/05 04:36:52;;;;;;;5.63;3.70;;;14.70;99.90;;;;;;5070627;28;20478;-70
2023/08/05 04:39:19;;;;;;;3.33;3.03;;;14.70;99.90;;;;;;5071305;28;20582;-70
2023/08/05 04:41:46;;;;;;;5.40;3.60;;;14.70;99.90;;;;;;5070442;28;20487;-70
2023/08/05 04:44:13;;;;;;;5.73;3.60;;;14.60;99.90;;;;;;5071341;28;20829;-70
2023/08/05 04:46:40;;;;;;;8.33;3.80;;;14.60;99.90;;;;;;5071163;28;20948;-70
2023/08/05 04:49:09;;;;;;;5.00;3.30;;;14.70;99.90;;;;;;5070877;28;20469;-70
2023/08/05 04:51:37;;;;;;;5.53;4.03;;;14.60;99.90;;;;;;5071432;28;20551;-69
2023/08/05 04:54:05;;;;;;;4.03;3.60;;;14.70;99.90;;;;;;5071122;28;20817;-70
2023/08/05 04:56:33;;;;;;;4.73;3.53;;;14.70;99.90;;;;;;5071142;28;20491;-70
2023/08/05 04:59:00;;;;;;;7.50;4.13;;;14.70;99.90;;;;;;5070473;28;21208;-70
2023/08/05 05:01:26;;;;;;;4.63;3.70;;;14.70;99.90;;;;;;5071307;28;20553;-70
2023/08/05 05:03:53;;;;;;;4.63;3.50;;;14.70;99.90;;;;;;5070843;28;20459;-68
2023/08/05 05:06:20;;;;;;;4.20;3.80;;;14.70;99.90;;;;;;5070772;28;20948;-70
2023/08/05 05:08:48;;;;;;;5.97;3.90;;;14.70;99.90;;;;;;5070625;28;20469;-70
2023/08/05 05:11:15;;;;;;;4.87;3.40;;;14.70;99.90;;;;;;5071140;28;20452;-70
2023/08/05 05:13:43;;;;;;;4.00;3.57;;;14.70;99.90;;;;;;5070836;28;20461;-70
2023/08/05 05:16:10;;;;;;;5.13;3.57;;;14.70;99.90;;;;;;5070581;28;20464;-70
2023/08/05 05:18:37;;;;;;;5.50;3.63;;;14.80;99.90;;;;;;5070537;28;20854;-70
2023/08/05 05:21:04;;;;;;;6.90;3.83;;;14.70;99.90;;;;;;5070652;28;20453;-70
2023/08/05 05:23:30;;;;;;;4.27;3.00;;;14.80;99.90;;;;;;5070820;28;21059;-70
2023/08/05 05:25:58;;;;;;;4.70;3.40;;;14.80;99.90;;;;;;5070391;28;20461;-69
2023/08/05 05:28:25;;;;;;;4.93;3.73;;;14.80;99.90;;;;;;5070190;28;21010;-70
2023/08/05 05:30:52;;;;;;;5.40;3.50;;;14.80;99.90;;;;;;5070356;28;20467;-70
2023/08/05 05:33:18;;;;;;;4.30;3.90;;;14.80;99.90;;;;;;5070791;28;20804;-69
2023/08/05 05:35:45;;;;;;;4.50;3.43;;;14.90;99.90;;;;;;5070320;28;20463;-70
2023/08/05 05:38:12;;;;;;;5.03;3.83;;;14.90;99.90;;;;;;5069433;28;20855;-69
2023/08/05 05:40:40;;;;;;;4.80;4.30;;;14.90;99.90;;;;;;5070724;28;20452;-69
2023/08/05 05:43:08;;;;;;;3.77;2.90;;;14.90;99.90;;;;;;5070432;28;20513;-69
2023/08/05 05:45:36;;;;;;;4.03;3.50;;;14.90;99.90;;;;;;5065480;28;20457;-70
2023/08/05 05:48:03;;;;;;;4.60;3.90;;;14.90;99.90;;;;;;5069480;28;20468;-70
2023/08/05 05:50:29;;;;;;;3.93;3.30;;;14.80;99.90;;;;;;5070302;28;20459;-69
2023/08/05 05:52:56;;;;;;;3.83;3.07;;;14.80;99.90;;;;;;5069358;28;20460;-69
2023/08/05 05:55:23;;;;;;;4.13;3.00;;;14.90;99.90;;;;;;5059444;28;20934;-69
2023/08/05 05:57:50;;;;;;;7.93;3.73;;;14.90;99.90;;;;;;5069900;28;20491;-69
2023/08/05 06:00:18;;;;;;;3.90;3.50;;;14.90;99.90;;;;;;5051511;28;20451;-70
2023/08/05 06:02:45;;;;;;;4.47;3.50;;;14.90;99.90;;;;;;5048495;28;20463;-70
2023/08/05 06:05:11;;;;;;;5.83;3.53;;;15.00;99.90;;;;;;5070299;28;20466;-70
2023/08/05 06:07:38;;;;;;;3.57;2.93;;;14.90;99.90;;;;;;5069877;28;20827;-70
2023/08/05 06:10:06;;;;;;;4.63;3.53;;;15.00;99.90;;;;;;5069860;28;20476;-70
2023/08/05 06:12:36;;;;;;;4.20;3.40;;;15.00;99.90;;;;;;5224584;22;20501;-67
2023/08/05 06:15:03;;;;;;;4.27;3.57;;;15.00;99.90;;;;;;5055503;28;20450;-68
2023/08/05 06:17:31;;;;;;;4.83;3.30;;;15.00;99.90;;;;;;5057843;28;20537;-68
2023/08/05 06:19:57;;;;;;;3.30;2.87;;;15.00;99.90;;;;;;5066012;28;20477;-68
2023/08/05 06:22:24;;;;;;;3.90;3.30;;;15.00;99.90;;;;;;5042033;28;20461;-68
2023/08/05 06:24:51;;;;;;;4.00;3.17;;;15.00;99.90;;;;;;5063859;28;20456;-68
2023/08/05 06:27:18;;;;;;;4.40;3.03;;;15.10;99.90;;;;;;5069430;28;20461;-68
2023/08/05 06:29:45;;;;;;;4.60;3.70;;;15.10;99.90;;;;;;5069557;28;20470;-68
2023/08/05 06:32:12;;;;;;;3.90;3.10;;;15.20;99.90;;;;;;5063265;28;20986;-68
2023/08/05 06:34:40;;;;;;;3.93;3.10;;;15.30;99.90;;;;;;5069587;28;20491;-68
2023/08/05 06:37:07;;;;;;;5.10;3.20;;;15.30;99.90;;;;;;5065519;28;20466;-68
2023/08/05 06:39:34;;;;;;;3.87;3.57;;;15.40;99.90;;;;;;5068237;28;20492;-69
2023/08/05 06:42:00;;;;;;;3.50;3.10;;;15.40;99.90;;;;;;5069247;28;20883;-69
2023/08/05 06:44:27;;;;;;;3.73;3.20;;;15.50;99.90;;;;;;5069641;28;20464;-68
2023/08/05 06:46:54;;;;;;;3.30;2.80;;;15.60;99.90;;;;;;5069506;28;20457;-69
2023/08/05 06:49:21;;;;;;;3.17;2.87;;;15.70;99.90;;;;;;5069094;28;20476;-68
2023/08/05 06:51:50;;;;;;;4.07;2.60;;;15.80;99.90;;;;;;5069615;28;20979;-68
2023/08/05 06:54:17;;;;;;;2.77;2.53;;;15.80;99.90;;;;;;5069628;28;20461;-69
2023/08/05 06:56:44;;;;;;;3.40;2.90;;;15.80;99.90;;;;;;5069415;28;20947;-69
2023/08/05 06:59:11;;;;;;;2.83;2.63;;;15.90;99.90;;;;;;5069198;28;20490;-69
2023/08/05 07:01:37;;;;;;;3.03;2.60;;;15.90;99.90;;;;;;5069695;28;20960;-68
2023/08/05 07:04:04;;;;;;;3.87;3.27;;;16.00;99.90;;;;;;5069378;28;20487;-69
2023/08/05 07:06:31;;;;;;;5.40;3.00;;;16.10;99.90;;;;;;5073248;28;20462;-69
2023/08/05 07:08:59;;;;;;;3.40;3.10;;;16.10;99.90;;;;;;5072755;28;20473;-68
2023/08/05 07:11:26;;;;;;;3.93;3.53;;;16.20;99.90;;;;;;5073187;28;20481;-68
2023/08/05 07:13:52;;;;;;;2.40;2.20;;;16.30;99.90;;;;;;5073018;28;20468;-68
2023/08/05 07:16:19;;;;;;;3.50;2.77;;;16.40;99.90;;;;;;5072894;28;20454;-68
2023/08/05 07:18:46;;;;;;;3.83;3.00;;;16.40;99.90;;;;;;5072447;28;20490;-68
2023/08/05 07:21:14;;;;;;;2.70;2.50;;;16.50;99.90;;;;;;5072949;28;20457;-69
2023/08/05 07:23:41;;;;;;;4.53;3.70;;;16.50;99.90;;;;;;5073109;28;20463;-69
2023/08/05 07:26:09;;;;;;;3.20;2.70;;;16.60;99.90;;;;;;5072579;28;20829;-68
2023/08/05 07:28:36;;;;;;;4.43;2.70;;;16.70;99.90;;;;;;5059393;28;20470;-68
2023/08/05 07:31:04;;;;;;;3.07;2.77;;;16.70;99.90;;;;;;5040602;28;20830;-68
2023/08/05 07:33:31;;;;;;;3.07;2.43;;;16.70;99.90;;;;;;5046744;28;20517;-68
2023/08/05 07:35:58;;;;;;;2.97;2.40;;;16.80;99.90;;;;;;5046267;28;20467;-68
2023/08/05 07:38:27;;;;;;;2.70;2.33;;;16.80;99.90;;;;;;5043869;28;20480;-68
2023/08/05 07:40:55;;;;;;;4.03;2.40;;;16.90;99.90;;;;;;5040182;28;20591;-68
2023/08/05 07:43:24;;;;;;;2.87;2.60;;;16.90;99.90;;;;;;5043895;28;20488;-68
2023/08/05 07:45:51;;;;;;;2.67;2.47;;;16.90;99.90;;;;;;5039584;28;20453;-69
2023/08/05 07:48:17;;;;;;;3.10;2.70;;;17.00;99.90;;;;;;5041746;28;20475;-68
2023/08/05 07:50:44;;;;;;;3.00;2.70;;;16.90;99.90;;;;;;5043376;28;20469;-69
2023/08/05 07:53:13;;;;;;;4.30;2.37;;;17.00;99.90;;;;;;5040710;28;20843;-68
2023/08/05 07:55:42;;;;;;;2.90;2.60;;;17.20;99.90;;;;;;5041290;28;20548;-68
2023/08/05 07:58:09;;;;;;;2.80;2.60;;;17.20;99.90;;;;;;5041583;28;20546;-68
2023/08/05 08:00:39;;;;;;;2.60;2.40;;;17.30;99.90;;;;;;5042786;28;20852;-69
2023/08/05 08:03:06;;;;;;;3.33;2.20;;;17.40;99.90;;;;;;5041878;28;20563;-68
2023/08/05 08:05:32;;;;;;;3.47;2.60;;;17.50;99.90;;;;;;5041878;28;20454;-68
2023/08/05 08:08:00;;;;;;;4.23;2.13;;;17.70;99.90;;;;;;5048476;28;20987;-68
2023/08/05 08:10:26;;;;;;;3.40;2.40;;;17.70;99.90;;;;;;5056140;28;20817;-68
2023/08/05 08:12:53;;;;;;;2.40;2.20;;;17.80;99.90;;;;;;5050205;28;20468;-68
2023/08/05 08:15:20;;;;;;;2.97;2.33;;;18.00;99.90;;;;;;5037800;28;20460;-68
2023/08/05 08:17:49;;;;;;;2.97;2.60;;;18.00;99.90;;;;;;5038246;28;20463;-68
2023/08/05 08:20:15;;;;;;;2.67;2.47;;;18.00;99.90;;;;;;5046260;28;20490;-68
2023/08/05 08:22:42;;;;;;;3.20;2.70;;;18.10;99.90;;;;;;5046009;28;20835;-68
2023/08/05 08:25:09;;;;;;;3.87;2.60;;;18.10;99.90;;;;;;5046152;28;20456;-68
2023/08/05 08:27:36;;;;;;;2.50;2.30;;;18.10;99.90;;;;;;5048407;28;20825;-68
2023/08/05 08:30:03;;;;;;;3.73;3.17;;;18.10;99.90;;;;;;5045371;28;20464;-68
2023/08/05 08:32:30;;;;;;;3.80;2.50;;;18.10;99.90;;;;;;5048520;28;20458;-68
2023/08/05 08:34:58;;;;;;;2.93;2.60;;;18.20;99.90;;;;;;5045763;28;20471;-68
2023/08/05 08:37:25;;;;;;;2.30;2.10;;;18.20;99.90;;;;;;5047953;28;20963;-69
2023/08/05 08:39:51;;;;;;;2.93;2.73;;;18.30;99.90;;;;;;5045832;28;20856;-68
2023/08/05 08:42:21;;;;;;;1.80;1.70;;;18.30;99.90;;;;;;5047512;28;20452;-69
2023/08/05 08:44:48;;;;;;;2.73;2.40;;;18.40;99.90;;;;;;5046024;28;20459;-69
2023/08/05 08:47:15;;;;;;;2.17;1.97;;;18.50;99.90;;;;;;5046630;28;20472;-69
2023/08/05 08:49:42;;;;;;;3.00;2.13;;;18.50;99.90;;;;;;5047831;28;20472;-69
2023/08/05 08:52:13;;;;;;;2.20;2.00;;;18.50;99.90;;;;;;5045235;28;20458;-68
2023/08/05 08:54:39;;;;;;;2.57;2.00;;;18.60;99.90;;;;;;5047142;28;20690;-68
2023/08/05 08:57:07;;;;;;;2.23;2.03;;;18.80;99.90;;;;;;5044524;28;20465;-68
2023/08/05 08:59:34;;;;;;;2.40;2.20;;;18.90;99.90;;;;;;5044697;28;20490;-68
2023/08/05 09:02:01;;;;;;;3.20;1.70;;;19.20;99.90;;;;;;5048526;28;20453;-67
2023/08/05 09:04:31;;;;;;;2.40;1.87;;;19.30;99.90;;;;;;5046330;28;20492;-68
2023/08/05 09:06:59;;;;;;;3.87;2.97;;;19.30;99.90;;;;;;5043227;28;20489;-68
2023/08/05 09:09:30;;;;;;;2.53;1.70;;;19.50;99.90;;;;;;5045852;28;20484;-68
2023/08/05 09:11:58;;;;;;;2.20;2.00;;;19.60;99.90;;;;;;5042684;28;20508;-68
2023/08/05 09:14:25;;;;;;;2.30;2.10;;;19.70;99.90;;;;;;5058338;28;20467;-68
2023/08/05 09:16:59;;;;;;;2.37;2.00;;;19.70;99.90;;;;;;5070584;28;20463;-68
2023/08/05 09:19:26;;;;;;;2.30;2.10;;;19.60;99.90;;;;;;5067512;28;20515;-68
2023/08/05 09:21:53;;;;;;;2.23;2.03;;;19.50;99.90;;;;;;5047578;28;20595;-68
2023/08/05 09:24:23;;;;;;;2.13;1.93;;;19.40;99.90;;;;;;5046911;28;20458;-68
2023/08/05 09:26:56;;;;;;;2.20;1.90;;;19.30;99.90;;;;;;5051663;28;20458;-68
2023/08/05 09:29:24;;;;;;;2.30;1.90;;;19.20;99.90;;;;;;5069301;28;20534;-68
2023/08/05 09:31:58;;;;;;;2.47;2.10;;;19.20;99.90;;;;;;5070338;28;20467;-68
2023/08/05 09:34:35;;;;;;;2.40;2.20;;;19.10;99.90;;;;;;5064203;28;20466;-68
2023/08/05 09:37:03;;;;;;;2.70;2.10;;;19.10;99.90;;;;;;5069392;28;20459;-68
2023/08/05 09:39:44;;;;;;;2.77;1.83;;;19.10;99.90;;;;;;5067273;28;20506;-69
2023/08/05 09:42:20;;;;;;;1.93;1.77;;;19.10;99.90;;;;;;5064598;28;20470;-68
2023/08/05 09:44:47;;;;;;;2.23;2.00;;;19.20;99.90;;;;;;5055014;28;20877;-68
2023/08/05 09:47:17;;;;;;;2.07;1.63;;;19.30;99.90;;;;;;5070301;28;20456;-68
2023/08/05 09:49:47;;;;;;;2.03;1.87;;;19.40;99.90;;;;;;5069491;28;20480;-68
2023/08/05 09:52:17;;;;;;;1.90;1.77;;;19.40;99.90;;;;;;5070045;28;20461;-68
2023/08/05 09:54:47;;;;;;;1.93;1.73;;;19.40;99.90;;;;;;5069725;28;20464;-68
2023/08/05 09:57:14;;;;;;;2.13;1.87;;;19.40;99.90;;;;;;5070119;28;20461;-68
2023/08/05 09:59:43;;;;;;;2.00;1.80;;;19.50;99.90;;;;;;5068954;28;21237;-68
2023/08/05 10:02:12;;;;;;;2.27;1.77;;;19.60;99.90;;;;;;5070026;28;20810;-68
2023/08/05 10:04:41;;;;;;;2.43;1.93;;;19.70;99.90;;;;;;5069989;28;20496;-68
2023/08/05 10:07:08;;;;;;;1.90;1.60;;;20.10;99.90;;;;;;5069798;28;20544;-67
2023/08/05 10:09:35;;;;;;;1.90;1.80;;;20.40;99.90;;;;;;5069041;28;20526;-68
2023/08/05 10:12:04;;;;;;;2.40;2.20;;;20.80;99.90;;;;;;5069903;28;20832;-68
2023/08/05 10:14:32;;;;;;;1.77;1.67;;;21.00;99.90;;;;;;5069147;28;20464;-68
2023/08/05 10:17:01;;;;;;;2.70;1.80;;;20.90;99.90;;;;;;5069707;28;20452;-69
2023/08/05 10:19:28;;;;;;;2.47;1.70;;;20.80;99.90;;;;;;5069248;28;20780;-68
2023/08/05 10:22:07;;;;;;;1.73;1.63;;;20.70;99.90;;;;;;5056295;28;20466;-68
2023/08/05 10:24:50;;;;;;;1.83;1.73;;;20.60;99.90;;;;;;5052786;28;20454;-68
2023/08/05 10:27:17;;;;;;;3.53;1.60;;;20.50;99.90;;;;;;5060922;28;20488;-68
2023/08/05 10:29:52;;;;;;;1.73;1.40;;;20.50;99.90;;;;;;5049651;28;20481;-66
2023/08/05 10:32:29;;;;;;;1.70;1.60;;;20.60;99.90;;;;;;5069004;28;20461;-67
2023/08/05 10:35:27;;;;;;;2.00;1.80;;;20.60;99.90;;;;;;5068893;28;20463;-66
2023/08/05 10:38:09;;;;;;;1.90;1.70;;;20.60;99.90;;;;;;5068025;28;21004;-67
2023/08/05 10:40:46;;;;;;;1.60;1.50;;;20.40;99.90;;;;;;5071674;28;20483;-67
2023/08/05 10:43:30;;;;;;;1.80;1.70;;;20.30;99.90;;;;;;5062883;28;20476;-70
2023/08/05 10:46:03;;;;;;;2.07;1.87;;;20.10;99.90;;;;;;5059618;28;20542;-70
2023/08/05 10:48:35;;;;;;;1.97;1.77;;;20.00;99.90;;;;;;5072897;28;20469;-69
2023/08/05 10:51:08;;;;;;;2.80;1.73;;;19.90;99.90;;;;;;5072821;28;20456;-68
2023/08/05 10:53:35;;;;;;;2.23;2.03;;;19.70;99.90;;;;;;5073449;28;20456;-69
2023/08/05 10:56:02;;;;;;;2.20;1.80;;;19.60;99.90;;;;;;5073306;28;20893;-69
2023/08/05 10:58:30;;;;;;;1.90;1.70;;;19.60;99.90;;;;;;5072575;28;20512;-69
2023/08/05 11:00:59;;;;;;;2.20;2.00;;;19.50;99.90;;;;;;5073059;28;20822;-70
2023/08/05 11:03:41;;;;;;;2.03;1.83;;;19.40;99.90;;;;;;5072896;28;20560;-69
2023/08/05 11:06:08;;;;;;;2.10;1.90;;;19.40;99.90;;;;;;5073040;28;20833;-69
2023/08/05 11:08:38;;;;;;;2.53;2.33;;;19.40;99.90;;;;;;5072535;28;20487;-69
2023/08/05 11:11:07;;;;;;;2.67;2.40;;;19.40;99.90;;;;;;5069026;28;20463;-69
2023/08/05 11:13:36;;;;;;;3.03;2.30;;;19.40;99.90;;;;;;5068240;28;20503;-69
2023/08/05 11:16:07;;;;;;;2.47;2.27;;;19.40;99.90;;;;;;5072662;28;20546;-69
2023/08/05 11:18:36;;;;;;;2.70;2.30;;;19.50;99.90;;;;;;5072311;28;20476;-68
2023/08/05 11:21:06;;;;;;;2.47;2.27;;;19.50;99.90;;;;;;5072471;28;20487;-70
2023/08/05 11:23:33;;;;;;;2.23;2.03;;;19.50;99.90;;;;;;5072349;28;20474;-69
2023/08/05 11:26:01;;;;;;;2.53;2.33;;;19.60;99.90;;;;;;5072629;28;20952;-70
2023/08/05 11:28:29;;;;;;;2.67;2.30;;;19.70;99.90;;;;;;5071569;28;20837;-69
2023/08/05 11:30:56;;;;;;;2.07;1.87;;;19.80;99.90;;;;;;5072540;28;20453;-70
2023/08/05 11:33:24;;;;;;;2.10;1.90;;;19.90;99.90;;;;;;5072622;28;20464;-70
2023/08/05 11:35:55;;;;;;;2.33;1.83;;;20.00;99.90;;;;;;5072090;28;20464;-70
2023/08/05 11:38:23;;;;;;;2.60;2.40;;;20.10;99.90;;;;;;5072221;28;20512;-69
2023/08/05 11:40:52;;;;;;;3.17;2.20;;;20.20;99.90;;;;;;5070643;28;20564;-70
2023/08/05 11:43:22;;;;;;;1.93;1.83;;;20.40;99.90;;;;;;5070218;28;20878;-68
2023/08/05 11:45:55;;;;;;;2.90;2.70;;;20.50;99.90;;;;;;5072178;28;20810;-68
2023/08/05 11:48:23;;;;;;;2.57;2.13;;;20.70;99.90;;;;;;5072125;28;20528;-68
2023/08/05 11:50:58;;;;;;;2.30;2.10;;;20.80;99.90;;;;;;5070928;28;20457;-69
2023/08/05 11:53:26;;;;;;;3.60;1.97;;;20.90;99.90;;;;;;5071758;28;21013;-69
2023/08/05 11:55:53;;;;;;;1.70;1.60;;;20.90;99.90;;;;;;5071617;28;20497;-70
2023/08/05 11:58:22;;;;;;;2.60;2.00;;;21.10;99.90;;;;;;5072070;28;20547;-68
2023/08/05 12:00:52;;;;;;;2.87;2.60;;;21.30;99.90;;;;;;5071488;28;21000;-68
2023/08/05 12:03:20;;;;;;;2.53;1.90;;;21.50;99.90;;;;;;5072230;28;20466;-70
2023/08/05 12:05:47;;;;;;;2.60;2.40;;;21.90;99.90;;;;;;5071174;28;20454;-70
2023/08/05 12:08:40;;;;;;;2.70;2.00;;;22.20;99.90;;;;;;5071726;28;20528;-68
2023/08/05 12:11:07;;;;;;;2.20;2.00;;;22.40;99.90;;;;;;5071790;28;20455;-68
2023/08/05 12:13:34;;;;;;;2.60;2.03;;;22.40;99.90;;;;;;5071837;28;20559;-68
2023/08/05 12:16:01;;;;;;;2.37;2.17;;;22.40;99.90;;;;;;5071554;28;21027;-69
2023/08/05 12:18:28;;;;;;;3.10;2.23;;;22.40;99.90;;;;;;5071206;28;20482;-69
2023/08/05 12:20:56;;;;;;;2.90;1.97;;;22.20;99.90;;;;;;5071485;28;20482;-69
2023/08/05 12:23:24;;;;;;;2.93;1.73;;;22.10;99.90;;;;;;5072086;28;20463;-69
2023/08/05 12:25:51;;;;;;;2.50;2.30;;;21.90;99.90;;;;;;5071581;28;20474;-69
2023/08/05 12:28:18;;;;;;;2.20;2.00;;;21.70;99.90;;;;;;5071454;28;20513;-69
2023/08/05 12:30:48;;;;;;;3.03;2.20;;;21.60;99.90;;;;;;5071235;28;20549;-69
2023/08/05 12:33:15;;;;;;;2.00;1.80;;;21.40;99.90;;;;;;5072005;28;20838;-69
2023/08/05 12:35:41;;;;;;;2.53;2.33;;;21.30;99.90;;;;;;5071208;28;20477;-68
2023/08/05 12:38:08;;;;;;;2.73;2.43;;;21.20;99.90;;;;;;5071627;28;20508;-69
2023/08/05 12:40:37;;;;;;;2.60;2.10;;;21.00;99.90;;;;;;5063127;28;20485;-68
2023/08/05 12:43:06;;;;;;;2.57;2.37;;;20.80;99.90;;;;;;5070963;28;20466;-68
2023/08/05 12:45:33;;;;;;;2.13;1.97;;;20.70;99.90;;;;;;5071457;28;20459;-68
2023/08/05 12:48:00;;;;;;;2.23;2.03;;;20.60;99.90;;;;;;5070684;28;20502;-69
2023/08/05 12:50:27;;;;;;;2.53;2.33;;;20.60;99.90;;;;;;5071085;28;20451;-67
2023/08/05 12:52:54;;;;;;;2.20;2.00;;;20.50;99.90;;;;;;5070213;28;20558;-70